sensor_id;sensor_type;location;lat;lon;timestamp;pressure;altitude;pressure_sealevel;temperature;humidity
33265;BME280;31404;53.974;-1.086;2022-12-20T00:00:41;99950.25;;;10.73;100.00
33265;BME280;31404;53.974;-1.086;2022-12-20T00:05:35;99945.86;;;10.72;100.00
33265;BME280;31404;53.974;-1.086;2022-12-20T00:10:35;99953.78;;;10.82;100.00
33265;BME280;31404;53.974;-1.086;2022-12-20T00:15:35;99951.63;;;12.54;93.30
33265;BME280;31404;53.974;-1.086;2022-12-20T00:20:35;99950.13;;;11.70;96.12
33265;BME280;31404;53.974;-1.086;2022-12-20T00:25:37;99953.13;;;12.26;92.93
33265;BME280;31404;53.974;-1.086;2022-12-20T00:30:35;99946.62;;;13.03;90.41
33265;BME280;31404;53.974;-1.086;2022-12-20T00:35:35;99942.78;;;12.69;91.43
33265;BME280;31404;53.974;-1.086;2022-12-20T00:40:35;99943.04;;;12.96;89.99
33265;BME280;31404;53.974;-1.086;2022-12-20T00:45:35;99947.67;;;13.54;87.91
33265;BME280;31404;53.974;-1.086;2022-12-20T00:50:35;99952.21;;;13.93;85.50
33265;BME280;31404;53.974;-1.086;2022-12-20T01:00:35;99946.03;;;14.17;85.06
33265;BME280;31404;53.974;-1.086;2022-12-20T01:05:35;99946.42;;;14.04;85.20
33265;BME280;31404;53.974;-1.086;2022-12-20T01:10:35;99944.42;;;14.90;81.58
33265;BME280;31404;53.974;-1.086;2022-12-20T01:15:35;99938.76;;;15.15;80.07
33265;BME280;31404;53.974;-1.086;2022-12-20T01:20:34;99944.04;;;15.15;79.43
33265;BME280;31404;53.974;-1.086;2022-12-20T01:25:34;99943.19;;;14.85;79.68
33265;BME280;31404;53.974;-1.086;2022-12-20T01:35:33;99942.68;;;14.04;81.04
33265;BME280;31404;53.974;-1.086;2022-12-20T01:45:35;99932.88;;;14.03;81.18
33265;BME280;31404;53.974;-1.086;2022-12-20T01:50:35;99937.53;;;14.08;80.98
33265;BME280;31404;53.974;-1.086;2022-12-20T01:55:34;99934.47;;;13.56;84.28
33265;BME280;31404;53.974;-1.086;2022-12-20T02:00:35;99938.79;;;13.81;83.13
33265;BME280;31404;53.974;-1.086;2022-12-20T02:05:37;99941.52;;;13.94;81.49
33265;BME280;31404;53.974;-1.086;2022-12-20T02:30:38;99938.29;;;12.64;84.12
33265;BME280;31404;53.974;-1.086;2022-12-20T02:35:37;99930.63;;;12.88;83.77
33265;BME280;31404;53.974;-1.086;2022-12-20T02:45:35;99934.19;;;12.80;83.46
33265;BME280;31404;53.974;-1.086;2022-12-20T02:50:37;99929.00;;;12.46;84.56
33265;BME280;31404;53.974;-1.086;2022-12-20T03:00:39;99928.55;;;13.46;80.68
33265;BME280;31404;53.974;-1.086;2022-12-20T03:10:35;99928.61;;;12.98;80.97
33265;BME280;31404;53.974;-1.086;2022-12-20T03:15:35;99933.64;;;12.48;82.71
33265;BME280;31404;53.974;-1.086;2022-12-20T03:20:34;99934.68;;;12.72;83.40
33265;BME280;31404;53.974;-1.086;2022-12-20T03:25:35;99934.94;;;13.48;79.73
33265;BME280;31404;53.974;-1.086;2022-12-20T03:30:34;99926.77;;;13.21;80.21
33265;BME280;31404;53.974;-1.086;2022-12-20T03:35:34;99948.00;;;13.25;79.84
33265;BME280;31404;53.974;-1.086;2022-12-20T03:40:34;99959.72;;;13.58;78.21
33265;BME280;31404;53.974;-1.086;2022-12-20T03:45:34;99959.59;;;13.53;77.75
33265;BME280;31404;53.974;-1.086;2022-12-20T03:50:34;99957.94;;;13.82;75.79
33265;BME280;31404;53.974;-1.086;2022-12-20T03:55:34;99947.93;;;14.22;74.13
33265;BME280;31404;53.974;-1.086;2022-12-20T04:00:34;99955.51;;;13.24;75.94
33265;BME280;31404;53.974;-1.086;2022-12-20T04:05:34;99949.37;;;13.63;75.37
33265;BME280;31404;53.974;-1.086;2022-12-20T04:10:34;99941.23;;;13.62;75.74
33265;BME280;31404;53.974;-1.086;2022-12-20T04:15:35;99942.74;;;12.93;76.81
33265;BME280;31404;53.974;-1.086;2022-12-20T04:20:35;99960.50;;;11.55;84.02
33265;BME280;31404;53.974;-1.086;2022-12-20T04:25:35;99963.60;;;10.85;87.86
33265;BME280;31404;53.974;-1.086;2022-12-20T04:30:34;99972.61;;;9.49;91.92
33265;BME280;31404;53.974;-1.086;2022-12-20T04:35:35;99949.37;;;10.92;87.48
33265;BME280;31404;53.974;-1.086;2022-12-20T04:45:35;99973.26;;;10.01;90.85
33265;BME280;31404;53.974;-1.086;2022-12-20T04:50:35;99959.99;;;11.14;85.88
33265;BME280;31404;53.974;-1.086;2022-12-20T04:55:36;99986.84;;;10.24;88.51
33265;BME280;31404;53.974;-1.086;2022-12-20T05:00:35;99981.15;;;10.60;86.66
33265;BME280;31404;53.974;-1.086;2022-12-20T05:05:35;99986.75;;;10.27;88.65
33265;BME280;31404;53.974;-1.086;2022-12-20T05:10:35;99994.08;;;10.17;89.65
33265;BME280;31404;53.974;-1.086;2022-12-20T05:15:34;99977.25;;;10.67;87.16
33265;BME280;31404;53.974;-1.086;2022-12-20T05:20:35;99983.06;;;11.09;84.70
33265;BME280;31404;53.974;-1.086;2022-12-20T05:25:34;99979.12;;;11.57;83.62
33265;BME280;31404;53.974;-1.086;2022-12-20T05:30:35;99982.08;;;11.17;83.33
33265;BME280;31404;53.974;-1.086;2022-12-20T05:35:35;99977.50;;;11.98;81.01
33265;BME280;31404;53.974;-1.086;2022-12-20T05:40:35;99973.59;;;11.06;84.21
33265;BME280;31404;53.974;-1.086;2022-12-20T05:45:35;99984.17;;;9.97;88.65
33265;BME280;31404;53.974;-1.086;2022-12-20T05:50:34;99986.86;;;10.21;88.74
33265;BME280;31404;53.974;-1.086;2022-12-20T05:55:34;99978.10;;;10.37;88.30
33265;BME280;31404;53.974;-1.086;2022-12-20T06:00:34;99973.03;;;10.82;86.22
33265;BME280;31404;53.974;-1.086;2022-12-20T06:05:35;99988.51;;;9.73;92.34
33265;BME280;31404;53.974;-1.086;2022-12-20T06:10:35;99990.32;;;9.87;89.26
33265;BME280;31404;53.974;-1.086;2022-12-20T06:15:35;99985.11;;;9.69;90.04
33265;BME280;31404;53.974;-1.086;2022-12-20T06:20:35;99977.94;;;10.37;85.96
33265;BME280;31404;53.974;-1.086;2022-12-20T06:25:37;100003.15;;;10.54;85.36
33265;BME280;31404;53.974;-1.086;2022-12-20T06:30:35;100003.19;;;11.55;81.11
33265;BME280;31404;53.974;-1.086;2022-12-20T06:35:35;100013.49;;;10.60;84.69
33265;BME280;31404;53.974;-1.086;2022-12-20T06:40:35;100021.16;;;10.49;84.73
33265;BME280;31404;53.974;-1.086;2022-12-20T06:45:35;100027.62;;;9.48;90.32
33265;BME280;31404;53.974;-1.086;2022-12-20T06:50:34;100030.63;;;9.65;91.14
33265;BME280;31404;53.974;-1.086;2022-12-20T06:55:34;100039.90;;;9.84;89.40
33265;BME280;31404;53.974;-1.086;2022-12-20T07:00:34;100036.72;;;10.37;87.72
33265;BME280;31404;53.974;-1.086;2022-12-20T07:10:36;100042.57;;;9.54;90.42
33265;BME280;31404;53.974;-1.086;2022-12-20T07:15:34;100044.00;;;9.83;89.89
33265;BME280;31404;53.974;-1.086;2022-12-20T07:20:35;100060.15;;;8.88;95.44
33265;BME280;31404;53.974;-1.086;2022-12-20T07:25:35;100057.25;;;9.54;90.26
33265;BME280;31404;53.974;-1.086;2022-12-20T07:30:36;100068.81;;;9.15;91.76
33265;BME280;31404;53.974;-1.086;2022-12-20T07:35:35;100069.40;;;9.53;90.35
33265;BME280;31404;53.974;-1.086;2022-12-20T07:45:35;100079.08;;;10.33;86.76
33265;BME280;31404;53.974;-1.086;2022-12-20T07:50:36;100084.58;;;10.30;86.07
33265;BME280;31404;53.974;-1.086;2022-12-20T07:55:36;100087.26;;;10.68;83.97
33265;BME280;31404;53.974;-1.086;2022-12-20T08:00:37;100100.70;;;8.90;89.37
33265;BME280;31404;53.974;-1.086;2022-12-20T08:05:37;100104.03;;;9.32;88.20
33265;BME280;31404;53.974;-1.086;2022-12-20T08:10:36;100104.65;;;8.77;89.90
33265;BME280;31404;53.974;-1.086;2022-12-20T08:15:35;100096.21;;;9.32;87.55
33265;BME280;31404;53.974;-1.086;2022-12-20T08:20:35;100108.94;;;9.20;87.79
33265;BME280;31404;53.974;-1.086;2022-12-20T08:25:36;100116.37;;;9.01;87.12
33265;BME280;31404;53.974;-1.086;2022-12-20T08:30:35;100120.44;;;9.25;86.50
33265;BME280;31404;53.974;-1.086;2022-12-20T08:35:34;100128.90;;;9.18;86.51
33265;BME280;31404;53.974;-1.086;2022-12-20T08:40:34;100130.16;;;8.33;90.10
33265;BME280;31404;53.974;-1.086;2022-12-20T08:45:34;100136.36;;;8.28;91.29
33265;BME280;31404;53.974;-1.086;2022-12-20T08:50:29;100141.09;;;8.41;90.24
33265;BME280;31404;53.974;-1.086;2022-12-20T08:55:34;100145.41;;;7.68;92.04
33265;BME280;31404;53.974;-1.086;2022-12-20T09:00:36;100143.19;;;7.79;90.41
33265;BME280;31404;53.974;-1.086;2022-12-20T09:05:34;100141.58;;;8.27;88.14
33265;BME280;31404;53.974;-1.086;2022-12-20T09:10:34;100144.58;;;7.74;91.77
33265;BME280;31404;53.974;-1.086;2022-12-20T09:15:34;100151.87;;;8.16;90.33
33265;BME280;31404;53.974;-1.086;2022-12-20T09:20:35;100161.02;;;7.98;91.47
33265;BME280;31404;53.974;-1.086;2022-12-20T09:25:34;100170.36;;;7.77;95.04
33265;BME280;31404;53.974;-1.086;2022-12-20T09:30:34;100181.20;;;6.87;95.52
33265;BME280;31404;53.974;-1.086;2022-12-20T09:35:34;100183.78;;;8.20;91.49
33265;BME280;31404;53.974;-1.086;2022-12-20T09:40:34;100199.10;;;7.85;92.06
33265;BME280;31404;53.974;-1.086;2022-12-20T09:45:36;100214.37;;;7.36;93.87
33265;BME280;31404;53.974;-1.086;2022-12-20T10:15:39;100221.37;;;7.66;95.46
33265;BME280;31404;53.974;-1.086;2022-12-20T10:25:35;100233.97;;;7.77;94.45
33265;BME280;31404;53.974;-1.086;2022-12-20T10:30:34;100235.03;;;6.91;100.00
33265;BME280;31404;53.974;-1.086;2022-12-20T10:35:37;100248.14;;;7.20;98.77
33265;BME280;31404;53.974;-1.086;2022-12-20T10:40:37;100240.05;;;7.16;97.08
33265;BME280;31404;53.974;-1.086;2022-12-20T10:45:36;100248.31;;;7.85;96.61
33265;BME280;31404;53.974;-1.086;2022-12-20T10:50:35;100246.08;;;8.45;92.60
33265;BME280;31404;53.974;-1.086;2022-12-20T10:55:37;100250.80;;;7.57;95.94
33265;BME280;31404;53.974;-1.086;2022-12-20T11:00:35;100257.60;;;7.02;100.00
33265;BME280;31404;53.974;-1.086;2022-12-20T11:05:34;100261.18;;;7.22;99.67
33265;BME280;31404;53.974;-1.086;2022-12-20T11:10:34;100260.86;;;8.00;95.53
33265;BME280;31404;53.974;-1.086;2022-12-20T11:15:35;100258.84;;;8.32;94.11
33265;BME280;31404;53.974;-1.086;2022-12-20T11:40:37;100254.88;;;6.50;100.00
33265;BME280;31404;53.974;-1.086;2022-12-20T11:55:38;100253.54;;;7.36;100.00
33265;BME280;31404;53.974;-1.086;2022-12-20T12:00:35;100258.25;;;7.05;100.00
33265;BME280;31404;53.974;-1.086;2022-12-20T12:10:36;100246.55;;;6.33;100.00
33265;BME280;31404;53.974;-1.086;2022-12-20T12:15:39;100246.53;;;5.94;100.00
33265;BME280;31404;53.974;-1.086;2022-12-20T12:25:34;100244.25;;;6.34;100.00
33265;BME280;31404;53.974;-1.086;2022-12-20T12:30:38;100233.65;;;5.68;100.00
33265;BME280;31404;53.974;-1.086;2022-12-20T12:45:36;100226.63;;;6.26;100.00
33265;BME280;31404;53.974;-1.086;2022-12-20T12:50:37;100231.30;;;5.96;99.21
33265;BME280;31404;53.974;-1.086;2022-12-20T12:55:39;100238.66;;;7.26;94.01
33265;BME280;31404;53.974;-1.086;2022-12-20T13:05:35;100226.39;;;7.13;91.80
33265;BME280;31404;53.974;-1.086;2022-12-20T13:20:36;100221.93;;;8.06;86.59
33265;BME280;31404;53.974;-1.086;2022-12-20T13:25:37;100228.31;;;7.97;86.73
33265;BME280;31404;53.974;-1.086;2022-12-20T13:30:35;100242.29;;;7.26;89.28
33265;BME280;31404;53.974;-1.086;2022-12-20T13:40:38;100221.45;;;8.65;84.00
33265;BME280;31404;53.974;-1.086;2022-12-20T13:45:37;100228.20;;;8.70;82.92
33265;BME280;31404;53.974;-1.086;2022-12-20T13:50:38;100228.99;;;8.57;82.92
33265;BME280;31404;53.974;-1.086;2022-12-20T13:55:37;100238.32;;;9.71;78.72
33265;BME280;31404;53.974;-1.086;2022-12-20T14:00:34;100241.75;;;8.20;83.52
33265;BME280;31404;53.974;-1.086;2022-12-20T14:05:36;100245.81;;;7.07;87.47
33265;BME280;31404;53.974;-1.086;2022-12-20T14:10:35;100254.60;;;7.38;88.04
33265;BME280;31404;53.974;-1.086;2022-12-20T14:15:34;100252.12;;;7.95;85.22
33265;BME280;31404;53.974;-1.086;2022-12-20T14:20:36;100249.78;;;8.79;82.83
33265;BME280;31404;53.974;-1.086;2022-12-20T14:25:39;100253.82;;;8.80;82.42
33265;BME280;31404;53.974;-1.086;2022-12-20T14:35:35;100261.17;;;9.33;78.34
33265;BME280;31404;53.974;-1.086;2022-12-20T14:45:35;100288.50;;;7.65;85.76
33265;BME280;31404;53.974;-1.086;2022-12-20T14:50:36;100279.39;;;6.93;93.18
33265;BME280;31404;53.974;-1.086;2022-12-20T14:55:37;100271.89;;;6.48;96.06
33265;BME280;31404;53.974;-1.086;2022-12-20T15:00:35;100274.29;;;6.72;95.02
33265;BME280;31404;53.974;-1.086;2022-12-20T15:05:42;100273.33;;;8.06;90.05
33265;BME280;31404;53.974;-1.086;2022-12-20T15:10:34;100273.17;;;8.64;85.11
33265;BME280;31404;53.974;-1.086;2022-12-20T15:15:36;100273.31;;;9.53;81.94
33265;BME280;31404;53.974;-1.086;2022-12-20T15:20:36;100271.96;;;8.69;83.05
33265;BME280;31404;53.974;-1.086;2022-12-20T15:25:36;100267.02;;;8.61;84.29
33265;BME280;31404;53.974;-1.086;2022-12-20T15:30:34;100275.67;;;9.26;81.98
33265;BME280;31404;53.974;-1.086;2022-12-20T15:35:35;100271.77;;;8.69;84.94
33265;BME280;31404;53.974;-1.086;2022-12-20T15:40:35;100270.00;;;8.78;83.48
33265;BME280;31404;53.974;-1.086;2022-12-20T15:45:34;100265.81;;;7.26;89.33
33265;BME280;31404;53.974;-1.086;2022-12-20T15:50:34;100280.30;;;9.42;82.50
33265;BME280;31404;53.974;-1.086;2022-12-20T15:55:34;100289.01;;;8.41;85.82
33265;BME280;31404;53.974;-1.086;2022-12-20T16:00:36;100289.90;;;8.46;84.89
33265;BME280;31404;53.974;-1.086;2022-12-20T16:05:36;100283.35;;;8.34;84.20
33265;BME280;31404;53.974;-1.086;2022-12-20T16:10:34;100288.60;;;8.29;83.77
33265;BME280;31404;53.974;-1.086;2022-12-20T16:15:35;100295.70;;;8.14;82.87
33265;BME280;31404;53.974;-1.086;2022-12-20T16:20:35;100294.49;;;9.30;77.92
33265;BME280;31404;53.974;-1.086;2022-12-20T16:25:35;100305.66;;;7.89;83.70
33265;BME280;31404;53.974;-1.086;2022-12-20T16:30:34;100316.76;;;7.29;86.39
33265;BME280;31404;53.974;-1.086;2022-12-20T16:35:35;100317.59;;;6.95;88.34
33265;BME280;31404;53.974;-1.086;2022-12-20T16:40:34;100325.65;;;7.28;87.69
33265;BME280;31404;53.974;-1.086;2022-12-20T16:45:34;100332.63;;;6.64;90.84
33265;BME280;31404;53.974;-1.086;2022-12-20T16:50:35;100339.21;;;7.91;86.79
33265;BME280;31404;53.974;-1.086;2022-12-20T16:55:34;100345.96;;;6.57;91.66
33265;BME280;31404;53.974;-1.086;2022-12-20T17:00:34;100348.96;;;6.31;91.30
33265;BME280;31404;53.974;-1.086;2022-12-20T17:05:36;100340.77;;;7.39;86.21
33265;BME280;31404;53.974;-1.086;2022-12-20T17:10:35;100350.49;;;6.81;87.40
33265;BME280;31404;53.974;-1.086;2022-12-20T17:15:35;100354.65;;;6.75;86.99
33265;BME280;31404;53.974;-1.086;2022-12-20T17:20:34;100357.07;;;7.58;82.66
33265;BME280;31404;53.974;-1.086;2022-12-20T17:25:36;100360.12;;;7.55;81.57
33265;BME280;31404;53.974;-1.086;2022-12-20T17:30:35;100358.63;;;6.12;87.22
33265;BME280;31404;53.974;-1.086;2022-12-20T17:35:35;100366.60;;;7.89;80.34
33265;BME280;31404;53.974;-1.086;2022-12-20T17:40:35;100368.88;;;7.37;81.76
33265;BME280;31404;53.974;-1.086;2022-12-20T17:45:34;100369.24;;;7.65;80.19
33265;BME280;31404;53.974;-1.086;2022-12-20T17:50:32;100359.40;;;8.38;77.42
33265;BME280;31404;53.974;-1.086;2022-12-20T17:55:34;100368.16;;;7.98;78.88
33265;BME280;31404;53.974;-1.086;2022-12-20T18:00:35;100370.81;;;6.15;83.23
33265;BME280;31404;53.974;-1.086;2022-12-20T18:10:35;100374.36;;;7.20;80.10
33265;BME280;31404;53.974;-1.086;2022-12-20T18:20:34;100384.81;;;7.33;81.04
33265;BME280;31404;53.974;-1.086;2022-12-20T18:25:34;100394.24;;;8.36;77.42
33265;BME280;31404;53.974;-1.086;2022-12-20T18:30:34;100400.78;;;8.60;76.82
33265;BME280;31404;53.974;-1.086;2022-12-20T18:35:34;100417.49;;;6.16;84.05
33265;BME280;31404;53.974;-1.086;2022-12-20T18:40:34;100410.91;;;7.00;83.17
33265;BME280;31404;53.974;-1.086;2022-12-20T18:45:36;100404.04;;;8.32;78.04
33265;BME280;31404;53.974;-1.086;2022-12-20T18:50:35;100406.84;;;7.98;77.73
33265;BME280;31404;53.974;-1.086;2022-12-20T18:55:36;100417.11;;;7.02;80.00
33265;BME280;31404;53.974;-1.086;2022-12-20T19:00:34;100420.67;;;7.34;78.89
33265;BME280;31404;53.974;-1.086;2022-12-20T19:05:34;100421.17;;;8.09;77.13
33265;BME280;31404;53.974;-1.086;2022-12-20T19:10:35;100427.99;;;7.45;79.86
33265;BME280;31404;53.974;-1.086;2022-12-20T19:15:35;100432.71;;;7.36;79.09
33265;BME280;31404;53.974;-1.086;2022-12-20T19:20:34;100435.48;;;5.74;86.83
33265;BME280;31404;53.974;-1.086;2022-12-20T19:25:36;100433.52;;;6.32;85.15
33265;BME280;31404;53.974;-1.086;2022-12-20T19:30:35;100430.79;;;7.47;79.31
33265;BME280;31404;53.974;-1.086;2022-12-20T19:35:34;100428.22;;;8.17;76.40
33265;BME280;31404;53.974;-1.086;2022-12-20T19:40:35;100427.60;;;7.93;76.75
33265;BME280;31404;53.974;-1.086;2022-12-20T19:45:36;100433.96;;;7.66;77.69
33265;BME280;31404;53.974;-1.086;2022-12-20T19:50:34;100439.52;;;7.42;78.19
33265;BME280;31404;53.974;-1.086;2022-12-20T19:55:34;100444.25;;;6.13;82.99
33265;BME280;31404;53.974;-1.086;2022-12-20T20:00:35;100449.20;;;5.40;89.25
33265;BME280;31404;53.974;-1.086;2022-12-20T20:05:35;100454.22;;;7.25;80.33
33265;BME280;31404;53.974;-1.086;2022-12-20T20:10:35;100460.63;;;6.71;81.75
33265;BME280;31404;53.974;-1.086;2022-12-20T20:15:36;100451.91;;;7.33;78.77
33265;BME280;31404;53.974;-1.086;2022-12-20T20:25:35;100452.45;;;7.56;77.74
33265;BME280;31404;53.974;-1.086;2022-12-20T20:35:35;100453.07;;;6.76;79.18
33265;BME280;31404;53.974;-1.086;2022-12-20T20:40:35;100450.72;;;5.78;84.05
33265;BME280;31404;53.974;-1.086;2022-12-20T20:50:35;100466.47;;;5.78;84.42
33265;BME280;31404;53.974;-1.086;2022-12-20T20:55:35;100478.22;;;5.49;85.78
33265;BME280;31404;53.974;-1.086;2022-12-20T21:00:34;100477.83;;;6.60;83.36
33265;BME280;31404;53.974;-1.086;2022-12-20T21:05:35;100482.15;;;4.39;91.97
33265;BME280;31404;53.974;-1.086;2022-12-20T21:10:35;100476.55;;;6.17;85.22
33265;BME280;31404;53.974;-1.086;2022-12-20T21:15:35;100486.39;;;5.07;89.19
33265;BME280;31404;53.974;-1.086;2022-12-20T21:20:35;100482.88;;;4.65;92.77
33265;BME280;31404;53.974;-1.086;2022-12-20T21:25:35;100468.39;;;5.37;90.92
33265;BME280;31404;53.974;-1.086;2022-12-20T21:30:35;100469.16;;;5.74;88.62
33265;BME280;31404;53.974;-1.086;2022-12-20T21:35:35;100469.76;;;4.01;97.48
33265;BME280;31404;53.974;-1.086;2022-12-20T21:40:35;100477.37;;;2.86;100.00
33265;BME280;31404;53.974;-1.086;2022-12-20T21:45:34;100465.80;;;4.44;99.00
33265;BME280;31404;53.974;-1.086;2022-12-20T21:50:34;100466.80;;;4.20;97.20
33265;BME280;31404;53.974;-1.086;2022-12-20T21:55:34;100472.79;;;3.43;100.00
33265;BME280;31404;53.974;-1.086;2022-12-20T22:00:34;100461.09;;;3.67;100.00
33265;BME280;31404;53.974;-1.086;2022-12-20T22:05:34;100460.33;;;3.55;100.00
33265;BME280;31404;53.974;-1.086;2022-12-20T22:10:34;100460.33;;;3.29;100.00
33265;BME280;31404;53.974;-1.086;2022-12-20T22:15:35;100469.53;;;2.78;100.00
33265;BME280;31404;53.974;-1.086;2022-12-20T22:20:35;100470.81;;;3.94;100.00
33265;BME280;31404;53.974;-1.086;2022-12-20T22:25:35;100473.17;;;4.10;100.00
33265;BME280;31404;53.974;-1.086;2022-12-20T22:35:35;100465.89;;;3.41;100.00
33265;BME280;31404;53.974;-1.086;2022-12-20T22:40:34;100459.45;;;3.40;100.00
33265;BME280;31404;53.974;-1.086;2022-12-20T22:45:34;100459.74;;;3.15;100.00
33265;BME280;31404;53.974;-1.086;2022-12-20T22:50:35;100451.24;;;3.87;100.00
33265;BME280;31404;53.974;-1.086;2022-12-20T22:55:35;100457.38;;;3.23;100.00
33265;BME280;31404;53.974;-1.086;2022-12-20T23:00:35;100451.17;;;4.65;100.00
33265;BME280;31404;53.974;-1.086;2022-12-20T23:05:34;100444.23;;;4.28;100.00
33265;BME280;31404;53.974;-1.086;2022-12-20T23:15:34;100430.93;;;4.74;100.00
33265;BME280;31404;53.974;-1.086;2022-12-20T23:20:29;100419.10;;;5.13;100.00
33265;BME280;31404;53.974;-1.086;2022-12-20T23:25:35;100395.14;;;5.18;100.00
33265;BME280;31404;53.974;-1.086;2022-12-20T23:30:35;100394.49;;;5.06;100.00
33265;BME280;31404;53.974;-1.086;2022-12-20T23:35:35;100392.54;;;4.74;100.00
33265;BME280;31404;53.974;-1.086;2022-12-20T23:40:34;100388.36;;;5.35;100.00
33265;BME280;31404;53.974;-1.086;2022-12-20T23:45:34;100385.31;;;5.47;98.87
33265;BME280;31404;53.974;-1.086;2022-12-20T23:50:34;100378.54;;;5.25;100.00
33265;BME280;31404;53.974;-1.086;2022-12-20T23:55:34;100370.35;;;5.64;100.00
